Time;durP1;ratioP1;P1;durP2;ratioP2;P2;SDS_P1;SDS_P2;PMS_P1;PMS_P2;Temp;Humidity;BMP_temperature;BMP_pressure;BME280_temperature;BME280_humidity;BME280_pressure;Samples;Min_cycle;Max_cycle;Signal;HPM_P1;HPM_P2
2023/03/03 00:02:09;;;;;;;6.88;2.90;;;;;;;;;;4997623;28;20059;-70
2023/03/03 00:04:35;;;;;;;6.45;3.10;;;;;;;;;;4998105;28;20064;-70
2023/03/03 00:07:01;;;;;;;8.00;3.38;;;;;;;;;;4996628;28;20052;-71
2023/03/03 00:09:27;;;;;;;7.50;3.38;;;;;;;;;;4997018;28;20375;-70
2023/03/03 00:11:55;;;;;;;9.13;3.20;;;;;;;;;;4997424;28;20069;-70
2023/03/03 00:14:32;;;;;;;4.95;2.72;;;;;;;;;;4996171;28;20108;-70
2023/03/03 00:17:00;;;;;;;5.45;3.13;;;;;;;;;;4997263;28;20057;-71
2023/03/03 00:19:26;;;;;;;8.65;3.20;;;;;;;;;;4996801;28;20096;-71
2023/03/03 00:21:55;;;;;;;7.25;2.80;;;;;;;;;;4996496;28;20410;-71
2023/03/03 00:24:30;;;;;;;5.38;3.20;;;;;;;;;;4997059;28;20084;-71
2023/03/03 00:26:57;;;;;;;5.93;2.92;;;;;;;;;;4996735;28;20046;-71
2023/03/03 00:29:23;;;;;;;8.30;2.55;;;;;;;;;;5014548;28;20057;-70
2023/03/03 00:31:49;;;;;;;6.85;3.00;;;;;;;;;;4997055;28;20366;-71
2023/03/03 00:34:19;;;;;;;8.02;2.95;;;;;;;;;;4997080;28;20045;-71
2023/03/03 00:36:45;;;;;;;6.28;2.78;;;;;;;;;;4993127;28;20054;-71
2023/03/03 00:39:21;;;;;;;5.80;2.80;;;;;;;;;;4993161;28;20046;-71
2023/03/03 00:41:48;;;;;;;8.63;2.67;;;;;;;;;;4993251;28;20038;-71
2023/03/03 00:44:31;;;;;;;6.13;2.65;;;;;;;;;;4976861;28;20034;-71
2023/03/03 00:46:57;;;;;;;;;;;;;;;;;;4993665;28;20042;-71
2023/03/03 00:49:26;;;;;;;4.53;2.70;;;;;;;;;;4993494;28;19940;-71
2023/03/03 00:51:52;;;;;;;6.55;2.72;;;;;;;;;;4992957;28;20414;-71
2023/03/03 00:54:18;;;;;;;3.97;2.70;;;;;;;;;;4992906;28;20089;-71
2023/03/03 00:56:45;;;;;;;5.20;2.38;;;;;;;;;;4993158;28;20450;-71
2023/03/03 00:59:11;;;;;;;4.38;2.45;;;;;;;;;;4992228;28;20042;-71
2023/03/03 01:01:37;;;;;;;6.35;2.80;;;;;;;;;;4976953;28;20065;-71
2023/03/03 01:04:03;;;;;;;5.78;2.90;;;;;;;;;;4976743;28;20208;-71
2023/03/03 01:06:29;;;;;;;7.90;2.63;;;;;;;;;;4992925;28;20038;-71
2023/03/03 01:08:56;;;;;;;6.10;2.30;;;;;;;;;;4992724;28;20088;-70
2023/03/03 01:11:27;;;;;;;4.43;2.47;;;;;;;;;;4993170;28;20427;-71
2023/03/03 01:13:53;;;;;;;4.93;2.35;;;;;;;;;;4992656;28;20042;-71
2023/03/03 01:16:20;;;;;;;5.60;2.50;;;;;;;;;;4994117;28;20505;-71
2023/03/03 01:18:46;;;;;;;3.28;2.42;;;;;;;;;;4992535;28;20097;-71
2023/03/03 01:21:12;;;;;;;7.13;2.80;;;;;;;;;;4976227;28;20038;-71
2023/03/03 01:23:38;;;;;;;5.65;2.70;;;;;;;;;;4992402;28;20121;-71
2023/03/03 01:26:06;;;;;;;5.68;2.70;;;;;;;;;;4992379;28;20101;-71
2023/03/03 01:28:32;;;;;;;10.65;2.45;;;;;;;;;;4992400;28;20035;-71
2023/03/03 01:31:02;;;;;;;10.90;2.65;;;;;;;;;;4992407;28;20041;-71
2023/03/03 01:33:30;;;;;;;4.60;2.65;;;;;;;;;;4991290;28;20101;-71
2023/03/03 01:35:56;;;;;;;4.13;2.35;;;;;;;;;;4991972;28;20054;-71
2023/03/03 01:38:22;;;;;;;2.88;2.10;;;;;;;;;;4992300;28;20089;-71
2023/03/03 01:40:53;;;;;;;3.55;2.53;;;;;;;;;;4992357;28;20100;-71
2023/03/03 01:43:19;;;;;;;6.07;2.35;;;;;;;;;;4990680;28;20046;-71
2023/03/03 01:45:48;;;;;;;7.10;2.70;;;;;;;;;;4975944;28;20045;-71
2023/03/03 01:48:30;;;;;;;4.57;2.53;;;;;;;;;;4991874;28;20123;-71
2023/03/03 01:50:59;;;;;;;4.95;2.33;;;;;;;;;;4992117;28;20088;-71
2023/03/03 01:53:28;;;;;;;12.63;2.78;;;;;;;;;;5006054;28;20034;-71
2023/03/03 01:55:55;;;;;;;5.10;2.20;;;;;;;;;;4976055;28;20030;-71
2023/03/03 01:58:44;;;;;;;7.88;2.20;;;;;;;;;;4992192;28;20034;-71
2023/03/03 02:01:18;;;;;;;5.75;2.22;;;;;;;;;;4970702;28;20074;-71
2023/03/03 02:03:44;;;;;;;4.65;2.20;;;;;;;;;;4993462;28;20038;-71
2023/03/03 02:06:13;;;;;;;6.85;2.22;;;;;;;;;;4991962;28;20039;-71
2023/03/03 02:08:42;;;;;;;5.05;2.25;;;;;;;;;;4991870;28;20129;-71
2023/03/03 02:11:09;;;;;;;6.40;2.33;;;;;;;;;;4991608;28;20038;-71
2023/03/03 02:13:36;;;;;;;4.88;2.20;;;;;;;;;;4991640;28;20357;-71
2023/03/03 02:16:02;;;;;;;7.85;2.50;;;;;;;;;;4991715;28;20046;-71
2023/03/03 02:18:28;;;;;;;4.80;2.20;;;;;;;;;;4975832;28;20471;-72
2023/03/03 02:20:57;;;;;;;3.65;2.08;;;;;;;;;;4992865;28;20105;-71
2023/03/03 02:23:48;;;;;;;4.28;3.05;;;;;;;;;;4989084;28;20121;-71
2023/03/03 02:26:18;;;;;;;9.18;2.47;;;;;;;;;;4991658;28;20039;-72
2023/03/03 02:28:44;;;;;;;4.57;1.88;;;;;;;;;;4991440;28;20513;-72
2023/03/03 02:31:13;;;;;;;7.47;2.25;;;;;;;;;;4992952;28;20093;-71
2023/03/03 02:33:40;;;;;;;5.80;2.28;;;;;;;;;;4991637;28;20074;-72
2023/03/03 02:36:06;;;;;;;6.32;2.15;;;;;;;;;;4991450;28;20117;-71
2023/03/03 02:38:41;;;;;;;8.18;2.00;;;;;;;;;;4991193;28;20165;-71
2023/03/03 02:41:11;;;;;;;7.70;2.30;;;;;;;;;;4991387;28;20086;-71
2023/03/03 02:43:50;;;;;;;7.80;2.15;;;;;;;;;;4991758;28;20189;-71
2023/03/03 02:46:17;;;;;;;5.70;2.17;;;;;;;;;;4991453;28;20133;-71
2023/03/03 02:48:43;;;;;;;5.60;1.90;;;;;;;;;;4991640;28;20054;-71
2023/03/03 02:51:09;;;;;;;10.45;2.22;;;;;;;;;;4975477;28;20046;-71
2023/03/03 02:53:36;;;;;;;8.27;2.10;;;;;;;;;;4991052;28;20041;-71
2023/03/03 02:56:03;;;;;;;6.63;2.10;;;;;;;;;;4991159;28;20704;-71
2023/03/03 02:58:29;;;;;;;3.03;1.92;;;;;;;;;;4989019;28;20133;-71
2023/03/03 03:00:56;;;;;;;6.82;2.35;;;;;;;;;;4991209;28;20050;-71
2023/03/03 03:03:22;;;;;;;4.72;2.05;;;;;;;;;;4990928;28;20041;-71
2023/03/03 03:05:48;;;;;;;6.90;2.25;;;;;;;;;;4973696;28;20125;-71
2023/03/03 03:08:14;;;;;;;3.72;2.00;;;;;;;;;;4969874;28;20038;-71
2023/03/03 03:10:40;;;;;;;11.05;2.42;;;;;;;;;;4990974;28;20097;-71
2023/03/03 03:13:06;;;;;;;7.07;2.10;;;;;;;;;;4991192;28;20454;-71
2023/03/03 03:15:32;;;;;;;7.55;2.55;;;;;;;;;;4990938;28;20030;-71
2023/03/03 03:17:59;;;;;;;5.53;2.40;;;;;;;;;;4990990;28;20125;-71
2023/03/03 03:20:25;;;;;;;4.45;2.00;;;;;;;;;;4991210;28;20570;-71
2023/03/03 03:22:51;;;;;;;5.45;2.20;;;;;;;;;;4977319;28;20050;-71
2023/03/03 03:25:17;;;;;;;3.95;1.80;;;;;;;;;;4994799;28;20482;-71
2023/03/03 03:27:43;;;;;;;5.07;1.92;;;;;;;;;;4978647;28;20078;-71
2023/03/03 03:30:10;;;;;;;5.82;3.00;;;;;;;;;;4994785;28;20043;-71
2023/03/03 03:32:36;;;;;;;5.78;2.33;;;;;;;;;;4994908;28;20061;-71
2023/03/03 03:35:02;;;;;;;3.78;2.20;;;;;;;;;;4994765;28;20352;-71
2023/03/03 03:37:28;;;;;;;10.55;2.40;;;;;;;;;;4994647;28;20054;-71
2023/03/03 03:39:55;;;;;;;7.68;2.50;;;;;;;;;;4994687;28;20049;-71
2023/03/03 03:42:21;;;;;;;6.65;2.30;;;;;;;;;;4994345;28;20042;-71
2023/03/03 03:44:47;;;;;;;6.20;2.20;;;;;;;;;;4994579;28;20049;-71
2023/03/03 03:47:13;;;;;;;5.85;2.10;;;;;;;;;;4994242;28;20050;-71
2023/03/03 03:49:39;;;;;;;7.20;2.15;;;;;;;;;;4977996;28;20073;-72
2023/03/03 03:52:05;;;;;;;8.18;2.20;;;;;;;;;;4978276;28;20372;-72
2023/03/03 03:54:31;;;;;;;3.22;1.80;;;;;;;;;;4994386;28;20038;-72
2023/03/03 03:56:58;;;;;;;4.63;2.05;;;;;;;;;;4994265;28;20509;-72
2023/03/03 03:59:24;;;;;;;4.60;2.15;;;;;;;;;;4995622;28;20142;-71
2023/03/03 04:01:50;;;;;;;2.80;1.95;;;;;;;;;;4994230;28;20050;-71
2023/03/03 04:04:16;;;;;;;2.13;1.90;;;;;;;;;;4994052;28;20125;-72
2023/03/03 04:06:42;;;;;;;2.08;1.88;;;;;;;;;;4994124;28;20043;-72
2023/03/03 04:09:08;;;;;;;3.35;2.00;;;;;;;;;;4978000;28;20089;-72
2023/03/03 04:11:35;;;;;;;5.57;1.95;;;;;;;;;;4977765;28;20043;-72
2023/03/03 04:14:01;;;;;;;4.00;1.90;;;;;;;;;;4993863;28;20152;-72
2023/03/03 04:16:27;;;;;;;4.13;2.28;;;;;;;;;;4993789;28;20038;-72
2023/03/03 04:18:53;;;;;;;3.38;2.22;;;;;;;;;;4994325;28;20061;-72
2023/03/03 04:21:19;;;;;;;7.03;2.20;;;;;;;;;;4993568;28;20081;-72
2023/03/03 04:23:45;;;;;;;5.40;2.25;;;;;;;;;;4977849;28;20050;-71
2023/03/03 04:26:11;;;;;;;5.65;1.98;;;;;;;;;;4993656;28;20050;-71
2023/03/03 04:28:37;;;;;;;3.53;1.90;;;;;;;;;;4993764;28;20042;-71
2023/03/03 04:31:04;;;;;;;5.20;2.17;;;;;;;;;;4993653;28;21124;-71
2023/03/03 04:33:30;;;;;;;6.88;2.60;;;;;;;;;;4993393;28;20121;-71
2023/03/03 04:35:56;;;;;;;3.78;2.00;;;;;;;;;;4993594;28;20077;-71
2023/03/03 04:38:22;;;;;;;7.70;2.30;;;;;;;;;;4993231;28;20070;-71
2023/03/03 04:40:48;;;;;;;3.33;2.03;;;;;;;;;;4977474;28;20359;-71
2023/03/03 04:43:14;;;;;;;4.30;2.00;;;;;;;;;;4993510;28;20084;-71
2023/03/03 04:45:40;;;;;;;5.25;2.30;;;;;;;;;;4990635;28;20046;-71
2023/03/03 04:48:07;;;;;;;4.57;2.13;;;;;;;;;;4993105;28;20049;-71
2023/03/03 04:50:33;;;;;;;3.88;2.00;;;;;;;;;;4993208;28;20064;-71
2023/03/03 04:52:59;;;;;;;4.82;2.13;;;;;;;;;;4993105;28;20038;-71
2023/03/03 04:55:25;;;;;;;2.65;2.20;;;;;;;;;;4977035;28;20038;-71
2023/03/03 04:57:52;;;;;;;4.93;2.40;;;;;;;;;;4977105;28;20053;-71
2023/03/03 05:00:18;;;;;;;7.18;2.28;;;;;;;;;;4992866;28;20045;-71
2023/03/03 05:02:44;;;;;;;10.75;2.40;;;;;;;;;;4992852;28;20099;-71
2023/03/03 05:05:10;;;;;;;4.60;2.22;;;;;;;;;;4992951;28;20117;-71
2023/03/03 05:07:36;;;;;;;8.35;3.20;;;;;;;;;;4976488;28;20034;-71
2023/03/03 05:10:02;;;;;;;8.30;2.63;;;;;;;;;;4992675;28;20043;-71
2023/03/03 05:12:29;;;;;;;6.28;2.10;;;;;;;;;;4992904;28;20057;-70
2023/03/03 05:14:55;;;;;;;8.25;2.85;;;;;;;;;;4993097;28;20065;-71
2023/03/03 05:17:21;;;;;;;7.38;2.30;;;;;;;;;;4976530;28;20034;-71
2023/03/03 05:19:47;;;;;;;4.65;2.25;;;;;;;;;;4992521;28;20049;-71
2023/03/03 05:22:13;;;;;;;10.43;2.30;;;;;;;;;;4976276;28;20042;-71
2023/03/03 05:24:41;;;;;;;7.55;2.58;;;;;;;;;;4976344;28;20050;-71
2023/03/03 05:27:07;;;;;;;8.55;2.10;;;;;;;;;;4976383;28;20093;-72
2023/03/03 05:29:34;;;;;;;9.77;2.35;;;;;;;;;;4976220;28;20035;-71
2023/03/03 05:32:00;;;;;;;4.78;2.22;;;;;;;;;;4992472;28;20466;-72
2023/03/03 05:34:27;;;;;;;4.85;2.42;;;;;;;;;;4992611;28;20034;-71
2023/03/03 05:36:53;;;;;;;11.38;2.40;;;;;;;;;;4991923;28;20070;-71
2023/03/03 05:39:19;;;;;;;5.70;2.40;;;;;;;;;;4992390;28;20046;-71
2023/03/03 05:41:45;;;;;;;2.88;2.00;;;;;;;;;;4991611;28;20068;-71
2023/03/03 05:44:11;;;;;;;5.95;2.30;;;;;;;;;;4992083;28;20038;-71
2023/03/03 05:46:37;;;;;;;5.88;2.20;;;;;;;;;;4991344;28;20510;-71
2023/03/03 05:49:03;;;;;;;8.07;2.17;;;;;;;;;;4993106;28;20035;-71
2023/03/03 05:51:29;;;;;;;8.57;2.42;;;;;;;;;;4992125;28;20037;-71
2023/03/03 05:53:56;;;;;;;5.95;2.28;;;;;;;;;;4975703;28;20096;-71
2023/03/03 05:56:22;;;;;;;3.67;2.17;;;;;;;;;;4976204;28;20077;-71
2023/03/03 05:58:48;;;;;;;5.35;2.63;;;;;;;;;;4993298;28;20132;-71
2023/03/03 06:01:14;;;;;;;6.28;2.30;;;;;;;;;;4991794;28;20050;-71
2023/03/03 06:03:40;;;;;;;15.93;3.15;;;;;;;;;;4991714;28;20049;-71
2023/03/03 06:06:08;;;;;;;11.63;3.38;;;;;;;;;;4992111;28;20398;-71
2023/03/03 06:08:34;;;;;;;12.27;2.60;;;;;;;;;;4975304;28;20077;-71
2023/03/03 06:11:00;;;;;;;7.78;2.47;;;;;;;;;;4975758;28;20038;-71
2023/03/03 06:13:26;;;;;;;11.30;2.65;;;;;;;;;;4991653;28;20089;-71
2023/03/03 06:15:52;;;;;;;8.80;2.72;;;;;;;;;;4991698;28;20109;-72
2023/03/03 06:18:18;;;;;;;7.00;2.17;;;;;;;;;;4992279;28;20044;-72
2023/03/03 06:20:44;;;;;;;5.03;2.08;;;;;;;;;;4992549;28;20057;-72
2023/03/03 06:23:10;;;;;;;7.10;2.28;;;;;;;;;;4991775;28;20052;-72
2023/03/03 06:25:38;;;;;;;5.07;2.38;;;;;;;;;;4975402;28;20069;-72
2023/03/03 06:28:04;;;;;;;6.32;2.17;;;;;;;;;;4991395;28;20054;-72
2023/03/03 06:30:30;;;;;;;6.15;2.35;;;;;;;;;;4991309;28;20509;-71
2023/03/03 06:32:56;;;;;;;7.30;2.95;;;;;;;;;;4975379;28;20452;-72
2023/03/03 06:35:22;;;;;;;6.15;2.10;;;;;;;;;;4971482;28;20092;-72
2023/03/03 06:37:49;;;;;;;5.43;2.40;;;;;;;;;;4994304;28;20374;-72
2023/03/03 06:40:15;;;;;;;2.58;2.08;;;;;;;;;;4992905;28;20042;-72
2023/03/03 06:42:42;;;;;;;4.43;2.28;;;;;;;;;;4992809;28;20046;-72
2023/03/03 06:45:08;;;;;;;7.60;2.20;;;;;;;;;;4991290;28;20042;-72
2023/03/03 06:47:34;;;;;;;7.13;2.50;;;;;;;;;;4991153;28;20050;-72
2023/03/03 06:50:00;;;;;;;7.28;2.58;;;;;;;;;;4990878;28;20466;-72
2023/03/03 06:52:26;;;;;;;4.57;2.10;;;;;;;;;;4988711;28;20038;-72
2023/03/03 06:54:54;;;;;;;6.13;2.60;;;;;;;;;;4988722;28;20030;-73
2023/03/03 06:57:24;;;;;;;5.82;2.45;;;;;;;;;;4986693;28;20042;-72
2023/03/03 06:59:52;;;;;;;6.25;2.33;;;;;;;;;;4989769;28;20050;-72
2023/03/03 07:02:19;;;;;;;4.15;2.67;;;;;;;;;;4989930;28;20125;-73
2023/03/03 07:04:45;;;;;;;5.45;2.60;;;;;;;;;;4991159;28;20042;-74
2023/03/03 07:07:19;;;;;;;3.85;2.28;;;;;;;;;;4995032;28;20057;-72
2023/03/03 07:09:47;;;;;;;11.50;2.47;;;;;;;;;;4994938;28;20038;-72
2023/03/03 07:12:14;;;;;;;4.43;2.28;;;;;;;;;;4996729;28;20034;-72
2023/03/03 07:14:45;;;;;;;4.57;2.72;;;;;;;;;;4998211;28;20041;-73
2023/03/03 07:17:17;;;;;;;3.35;2.50;;;;;;;;;;4997031;28;20516;-72
2023/03/03 07:19:43;;;;;;;8.40;2.70;;;;;;;;;;4998137;28;20100;-73
2023/03/03 07:22:17;;;;;;;4.25;2.80;;;;;;;;;;4995385;28;20490;-72
2023/03/03 07:24:50;;;;;;;4.70;3.05;;;;;;;;;;4997895;28;20385;-72
2023/03/03 07:27:15;;;;;;;;;;;1.10;99.90;;;;;;4998087;28;20181;-73
2023/03/03 07:29:42;;;;;;;8.20;3.33;;;;;;;;;;4997934;28;20000;-71
2023/03/03 07:32:34;;;;;;;7.50;3.42;;;;;;;;;;4997760;28;20042;-72
2023/03/03 07:35:01;;;;;;;11.15;3.28;;;;;;;;;;4980186;28;20068;-72
2023/03/03 07:37:34;;;;;;;11.27;3.35;;;;;;;;;;4981513;28;20501;-72
2023/03/03 07:40:01;;;;;;;9.82;3.55;;;;;;;;;;4997750;28;20486;-72
2023/03/03 07:42:40;;;;;;;5.05;3.08;;;;;;;;;;4997789;28;20045;-72
2023/03/03 07:45:21;;;;;;;5.25;2.80;;;;;;;;;;4997512;28;20098;-71
2023/03/03 07:47:47;;;;;;;8.57;3.95;;;;;;;;;;4997353;28;20125;-71
2023/03/03 07:50:17;;;;;;;9.15;3.50;;;;;;;;;;4965171;28;20092;-71
2023/03/03 07:52:48;;;;;;;12.70;3.28;;;;;;;;;;4997483;28;20037;-71
2023/03/03 07:55:34;;;;;;;12.88;3.63;;;;;;;;;;4996830;28;20040;-71
2023/03/03 07:58:21;;;;;;;6.63;3.70;;;;;;;;;;4997550;28;20076;-70
2023/03/03 08:01:05;;;;;;;9.52;3.63;;;;;;;;;;4997086;28;20042;-71
2023/03/03 08:03:35;;;;;;;11.18;3.58;;;;;;;;;;4996571;28;20108;-72
2023/03/03 08:06:09;;;;;;;9.90;3.20;;;;;;;;;;4997688;28;20053;-71
2023/03/03 08:08:41;;;;;;;12.32;3.35;;;;;;;;;;4996599;28;20046;-71
2023/03/03 08:11:08;;;;;;;11.60;3.35;;;;;;;;;;4997663;28;20042;-70
2023/03/03 08:13:36;;;;;;;11.20;4.05;;;;;;;;;;4998365;28;20397;-71
2023/03/03 08:16:17;;;;;;;16.98;5.85;;;;;;;;;;4993532;28;20038;-71
2023/03/03 08:18:48;;;;;;;13.45;5.78;;;;;;;;;;4990769;28;20485;-71
2023/03/03 08:21:14;;;;;;;14.55;5.38;;;;;;;;;;4987529;28;20040;-71
2023/03/03 08:23:40;;;;;;;15.75;6.03;;;;;;;;;;4988376;28;20038;-71
2023/03/03 08:26:06;;;;;;;16.83;4.68;;;;;;;;;;4996121;28;20084;-71
2023/03/03 08:28:32;;;;;;;12.70;4.93;;;;;;;;;;4972574;28;20069;-71
2023/03/03 08:30:58;;;;;;;18.70;5.18;;;;;;;;;;4993704;28;20073;-71
2023/03/03 08:33:24;;;;;;;15.85;4.38;;;;;;;;;;4996079;28;20382;-71
2023/03/03 08:35:51;;;;;;;14.90;4.43;;;;;;;;;;4987175;28;20069;-71
2023/03/03 08:38:18;;;;;;;13.95;4.50;;;;;;;;;;4997306;28;20041;-71
2023/03/03 08:40:45;;;;;;;11.90;3.72;;;;;;;;;;4997117;28;20037;-70
2023/03/03 08:43:15;;;;;;;12.52;3.92;;;;;;;;;;4994631;28;20509;-70
2023/03/03 08:45:42;;;;;;;9.23;3.85;;;;;;;;;;4988259;28;20053;-70
2023/03/03 08:48:08;;;;;;;11.20;3.75;;;;;;;;;;4983782;28;20046;-70
2023/03/03 08:50:34;;;;;;;9.40;4.03;;;;;;;;;;4990446;28;20109;-70
2023/03/03 08:53:00;;;;;;;6.13;3.35;;;;;;;;;;4989386;28;20037;-71
2023/03/03 08:55:26;;;;;;;12.07;4.35;;;;;;;;;;4990665;28;20137;-71
2023/03/03 08:57:52;;;;;;;12.65;3.55;;;;;;;;;;4996988;28;20096;-70
2023/03/03 09:00:19;;;;;;;7.88;3.38;;;;;;;;;;4997253;28;20459;-71
2023/03/03 09:02:45;;;;;;;4.72;2.83;;;;;;;;;;4996889;28;20169;-71
2023/03/03 09:05:11;;;;;;;7.03;2.78;;;;;;;;;;4992118;28;20630;-71
2023/03/03 09:07:38;;;;;;;10.07;3.22;;;;;;;;;;4993866;28;20461;-71
2023/03/03 09:10:04;;;;;;;8.05;3.10;;;;;;;;;;4993896;28;20073;-71
2023/03/03 09:12:34;;;;;;;9.32;3.05;;;;;;;;;;4991457;28;20125;-71
2023/03/03 09:15:03;;;;;;;7.03;2.22;;;;;;;;;;4986113;28;20041;-71
2023/03/03 09:17:33;;;;;;;4.55;2.20;;;;;;;;;;4989711;28;20437;-71
2023/03/03 09:20:02;;;;;;;5.95;2.30;;;;;;;;;;4995948;28;20453;-71
2023/03/03 09:22:28;;;;;;;8.45;2.67;;;;;;;;;;4985770;28;20038;-71
2023/03/03 09:24:57;;;;;;;4.80;2.20;;;;;;;;;;4983558;28;20042;-71
2023/03/03 09:27:30;;;;;;;15.57;2.80;;;;;;;;;;4997022;28;20101;-71
2023/03/03 09:29:57;;;;;;;6.55;2.40;;;;;;;;;;4997041;28;20471;-71
2023/03/03 09:32:31;;;;;;;6.00;2.60;;;;;;;;;;4996727;28;20121;-71
2023/03/03 09:34:57;;;;;;;6.47;2.28;;;;;;;;;;4996647;28;20092;-71
2023/03/03 09:37:26;;;;;;;7.22;2.17;;;;;;;;;;4980947;28;20058;-71
2023/03/03 09:39:53;;;;;;;7.85;2.10;;;;;;;;;;4974355;28;20141;-71
2023/03/03 09:42:34;;;;;;;6.38;2.42;;;;;;;;;;4973791;28;20074;-73
2023/03/03 09:45:08;;;;;;;11.07;2.10;;;;;;;;;;4985052;28;20042;-71
2023/03/03 09:47:49;;;;;;;5.05;2.13;;;;;;;;;;4991897;28;20535;-70
2023/03/03 09:50:25;;;;;;;10.65;2.20;;;;;;;;;;4992103;28;20058;-71
2023/03/03 09:52:54;;;;;;;9.00;2.40;;;;;;;;;;4991766;28;20050;-71
2023/03/03 09:55:39;;;;;;;12.23;2.75;;;;;;;;;;4976718;28;20077;-71
2023/03/03 09:58:05;;;;;;;4.03;2.20;;;;;;;;;;4993337;28;20045;-70
2023/03/03 10:00:57;;;;;;;4.63;2.05;;;;;;;;;;4993056;28;20046;-70
2023/03/03 10:03:34;;;;;;;9.55;2.40;;;;;;;;;;4974639;28;20133;-70
2023/03/03 10:06:08;;;;;;;7.00;1.85;;;;;;;;;;4993435;28;20465;-70
2023/03/03 10:08:49;;;;;;;3.90;1.60;;;;;;;;;;4993813;28;20096;-70
2023/03/03 10:11:18;;;;;;;4.57;1.63;;;;;;;;;;4992662;28;20122;-70
2023/03/03 10:13:50;;;;;;;11.05;1.90;;;;;;;;;;4992450;28;20050;-71
2023/03/03 10:16:22;;;;;;;11.43;2.10;;;;;;;;;;4992593;28;20046;-71
2023/03/03 10:18:55;;;;;;;6.90;1.75;;;;;;;;;;4992503;28;20050;-71
2023/03/03 10:21:29;;;;;;;5.25;1.90;;;;;;;;;;4992724;28;20042;-71
2023/03/03 10:24:14;;;;;;;6.03;2.00;;;;;;;;;;4992756;28;20065;-71
2023/03/03 10:26:49;;;;;;;7.07;1.88;;;;;;;;;;4993005;28;20120;-71
2023/03/03 10:29:15;;;;;;;8.30;2.40;;;;;;;;;;4992612;28;20542;-71
2023/03/03 10:31:41;;;;;;;7.32;1.95;;;;;;;;;;4992454;28;20073;-71
2023/03/03 10:34:24;;;;;;;11.07;1.73;;;;;;;;;;4992190;28;20054;-71
2023/03/03 10:36:55;;;;;;;2.40;1.40;;;;;;;;;;4992519;28;20054;-71
2023/03/03 10:39:38;;;;;;;4.72;1.50;;;;;;;;;;4993093;28;20054;-71
2023/03/03 10:42:04;;;;;;;;;;;;;;;;;;4976634;28;20050;-71
2023/03/03 10:44:49;;;;;;;2.47;1.23;;;;;;;;;;4992281;28;19918;-71
2023/03/03 10:47:15;;;;;;;4.00;1.40;;;;;;;;;;4992383;28;20100;-71
2023/03/03 10:50:00;;;;;;;5.43;1.63;;;;;;;;;;4992239;28;20451;-71
2023/03/03 10:52:32;;;;;;;8.73;2.00;;;;;;;;;;4992510;28;20379;-71
2023/03/03 10:55:08;;;;;;;2.65;1.35;;;;;;;;;;4992528;28;20368;-70
2023/03/03 10:57:45;;;;;;;24.05;3.65;;;;;;;;;;4992179;28;20054;-70
2023/03/03 11:00:20;;;;;;;5.93;1.35;;;;;;;;;;4992123;28;20038;-71
2023/03/03 11:03:10;;;;;;;6.55;1.63;;;6.40;99.90;;;;;;4992115;28;20138;-71
2023/03/03 11:05:43;;;;;;;7.90;1.95;;;;;;;;;;4992229;28;20398;-71
2023/03/03 11:08:14;;;;;;;8.82;1.60;;;;;;;;;;4992079;28;20116;-71
2023/03/03 11:10:58;;;;;;;8.35;2.15;;;;;;;;;;4991976;28;20121;-71
2023/03/03 11:13:27;;;;;;;7.45;1.48;;;;;;;;;;4992227;28;20038;-71
2023/03/03 11:16:15;;;;;;;9.05;2.15;;;;;;;;;;4991847;28;20049;-71
2023/03/03 11:19:00;;;;;;;16.58;2.20;;;;;;;;;;4991874;28;20057;-71
2023/03/03 11:21:50;;;;;;;3.50;1.42;;;;;;;;;;4991991;28;20100;-71
2023/03/03 11:24:16;;;;;;;9.90;1.60;;;;;;;;;;4987276;28;20104;-71
2023/03/03 11:26:48;;;;;;;6.18;1.65;;;;;;;;;;4991931;28;20061;-71
2023/03/03 11:29:44;;;;;;;10.88;2.05;;;;;;;;;;4991995;28;20039;-71
2023/03/03 11:32:19;;;;;;;15.45;1.75;;;;;;;;;;4964611;28;20046;-71
2023/03/03 11:35:03;;;;;;;11.82;2.28;;;;;;;;;;4990169;28;20126;-72
2023/03/03 11:37:32;;;;;;;7.15;2.13;;;;;;;;;;4971938;28;20086;-72
2023/03/03 11:40:01;;;;;;;9.23;2.03;;;;;;;;;;4972392;28;20105;-71
2023/03/03 11:42:32;;;;;;;11.75;1.80;;;;;;;;;;4971300;28;20510;-71
2023/03/03 11:45:18;;;;;;;10.90;1.77;;;;;;;;;;4975982;28;20576;-71
2023/03/03 11:47:59;;;;;;;15.15;2.55;;;;;;;;;;4975113;28;20447;-71
2023/03/03 11:50:31;;;;;;;11.93;2.10;;;;;;;;;;4956005;29;20554;-71
2023/03/03 11:53:00;;;;;;;7.53;1.60;;;;;;;;;;4964344;28;20510;-71
2023/03/03 11:55:26;;;;;;;8.23;1.95;;;;;;;;;;4970184;28;20043;-71
2023/03/03 11:57:59;;;;;;;9.63;2.40;;;;;;;;;;4975890;28;20105;-71
2023/03/03 12:00:47;;;;;;;8.75;2.60;;;;;;;;;;4975534;28;20124;-71
2023/03/03 12:03:36;;;;;;;11.77;2.05;;;;;;;;;;4975901;28;20400;-71
2023/03/03 12:06:17;;;;;;;9.77;2.22;;;;;;;;;;4992038;28;20122;-71
2023/03/03 12:08:50;;;;;;;14.80;2.45;;;;;;;;;;4991530;28;20047;-71
2023/03/03 12:11:54;;;;;;;9.68;2.38;;;;;;;;;;4975219;28;20039;-71
2023/03/03 12:14:38;;;;;;;10.85;1.85;;;;;;;;;;4920863;29;20058;-71
2023/03/03 12:17:10;;;;;;;8.82;1.70;;;;;;;;;;4931378;29;20043;-71
2023/03/03 12:19:45;;;;;;;9.98;2.13;;;;;;;;;;4957577;28;20050;-71
2023/03/03 12:22:14;;;;;;;12.23;3.50;;;;;;;;;;4975095;28;20137;-71
2023/03/03 12:24:40;;;;;;;17.27;2.53;;;;;;;;;;4974536;28;20038;-71
2023/03/03 12:27:06;;;;;;;11.27;2.10;;;;;;;;;;4975492;28;20039;-71
2023/03/03 12:29:35;;;;;;;18.40;2.47;;;;;;;;;;4975306;28;20035;-71
2023/03/03 12:32:05;;;;;;;18.02;2.17;;;;;;;;;;4990651;28;20042;-71
2023/03/03 12:34:38;;;;;;;12.45;2.35;;;;;;;;;;4975153;28;20077;-71
2023/03/03 12:37:15;;;;;;;13.90;3.30;;;;;;;;;;5000311;28;20135;-71
2023/03/03 12:39:46;;;;;;;19.98;2.65;;;;;;;;;;4995321;28;20042;-71
2023/03/03 12:42:45;;;;;;;20.52;3.25;;;;;;;;;;4990386;28;20038;-72
2023/03/03 12:45:23;;;;;;;15.80;2.83;;;;;;;;;;4962615;28;20050;-71
2023/03/03 12:48:00;;;;;;;15.50;2.60;;;;;;;;;;4985704;28;20078;-71
2023/03/03 12:50:30;;;;;;;23.45;3.80;;;;;;;;;;4989894;28;20042;-71
2023/03/03 12:53:19;;;;;;;29.20;3.50;;;;;;;;;;4989969;28;20038;-71
2023/03/03 12:56:02;;;;;;;23.63;3.25;;;;;;;;;;4957627;28;20042;-71
2023/03/03 12:58:35;;;;;;;31.45;5.72;;;;;;;;;;4993536;28;20124;-71
2023/03/03 13:01:53;;;;;;;28.73;3.42;;;7.60;99.90;;;;;;4994203;28;20038;-72
2023/03/03 13:04:28;;;;;;;26.75;3.97;;;;;;;;;;4973788;28;20042;-71
2023/03/03 13:07:06;;;;;;;27.33;3.53;;;;;;;;;;4993166;28;20406;-71
2023/03/03 13:09:38;;;;;;;24.58;4.35;;;;;;;;;;4993035;28;20034;-71
2023/03/03 13:12:24;;;;;;;28.02;3.97;;;;;;;;;;4992888;28;20088;-72
2023/03/03 13:14:57;;;;;;;24.73;3.05;;;;;;;;;;4976677;28;20053;-71
2023/03/03 13:17:23;;;;;;;19.52;3.60;;;;;;;;;;4992573;28;20041;-71
2023/03/03 13:19:52;;;;;;;19.67;3.70;;;;;;;;;;4992546;28;20129;-71
2023/03/03 13:22:33;;;;;;;20.25;3.80;;;;;;;;;;4993679;28;20046;-71
2023/03/03 13:24:59;;;;;;;18.27;3.08;;;;;;;;;;4983361;28;20053;-70
2023/03/03 13:27:30;;;;;;;28.95;4.10;;;;;;;;;;4974288;28;20042;-71
2023/03/03 13:30:05;;;;;;;23.50;3.17;;;;;;;;;;4974333;28;20039;-71
2023/03/03 13:32:40;;;;;;;19.92;3.58;;;;;;;;;;4974556;28;20125;-71
2023/03/03 13:35:25;;;;;;;30.00;3.08;;;;;;;;;;4974204;28;20042;-71
2023/03/03 13:37:56;;;;;;;23.60;3.05;;;;;;;;;;4984081;28;20058;-71
2023/03/03 13:40:24;;;;;;;29.38;3.17;;;;;;;;;;4992957;28;20061;-71
2023/03/03 13:42:59;;;;;;;33.33;3.60;;;;;;;;;;4977186;28;20042;-71
2023/03/03 13:45:25;;;;;;;25.48;3.13;;;;;;;;;;4993521;28;20454;-71
2023/03/03 13:47:57;;;;;;;23.38;3.53;;;;;;;;;;4994438;28;20052;-72
2023/03/03 13:50:24;;;;;;;22.45;3.72;;;;;;;;;;4992962;28;20034;-71
2023/03/03 13:52:50;;;;;;;36.90;4.03;;;;;;;;;;4993288;28;20046;-71
2023/03/03 13:55:34;;;;;;;25.27;2.70;;;;;;;;;;4993020;28;20506;-71
2023/03/03 13:58:13;;;;;;;23.30;3.08;;;;;;;;;;4993438;28;20050;-71
2023/03/03 14:00:46;;;;;;;17.77;2.83;;;;;;;;;;4992719;28;20038;-70
2023/03/03 14:03:18;;;;;;;32.17;4.53;;;;;;;;;;4993067;28;20046;-71
2023/03/03 14:05:44;;;;;;;24.38;4.05;;;;;;;;;;4992254;28;20042;-71
2023/03/03 14:08:22;;;;;;;17.85;2.30;;;;;;;;;;4993027;28;20042;-71
2023/03/03 14:11:00;;;;;;;37.75;7.00;;;;;;;;;;4992544;28;20561;-71
2023/03/03 14:13:32;;;;;;;30.60;3.78;;;;;;;;;;4993047;28;20054;-71
2023/03/03 14:16:01;;;;;;;35.28;4.68;;;;;;;;;;4992434;28;20038;-71
2023/03/03 14:18:30;;;;;;;26.25;4.00;;;;;;;;;;4992924;28;20136;-71
2023/03/03 14:21:08;;;;;;;28.40;3.83;;;;;;;;;;4992441;28;20054;-71
2023/03/03 14:23:40;;;;;;;33.70;4.45;;;;;;;;;;4991586;28;20050;-71
2023/03/03 14:26:10;;;;;;;26.95;4.25;;;;;;;;;;4991199;28;20045;-71
2023/03/03 14:28:42;;;;;;;36.95;5.65;;;;;;;;;;4991206;28;20046;-70
2023/03/03 14:31:23;;;;;;;22.48;3.20;;;;;;;;;;4992617;28;20038;-70
2023/03/03 14:34:07;;;;;;;26.75;3.70;;;;;;;;;;4993034;28;20113;-71
2023/03/03 14:36:36;;;;;;;18.17;3.10;;;;;;;;;;4976393;28;20478;-71
2023/03/03 14:39:04;;;;;;;21.80;3.40;;;;;;;;;;4992374;28;20049;-71
2023/03/03 14:41:39;;;;;;;34.42;4.45;;;;;;;;;;4976147;28;20180;-71
2023/03/03 14:44:20;;;;;;;29.23;3.33;;;;;;;;;;4992418;28;20038;-72
2023/03/03 14:46:46;;;;;;;28.33;3.80;;;;;;;;;;4992265;28;20088;-71
2023/03/03 14:49:29;;;;;;;22.48;4.18;;;;;;;;;;4992332;28;20057;-71
2023/03/03 14:52:02;;;;;;;25.98;3.42;;;;;;;;;;5008003;28;20100;-71
2023/03/03 14:54:29;;;;;;;31.15;3.55;;;;;;;;;;4992203;28;20449;-71
2023/03/03 14:57:16;;;;;;;22.13;3.75;;;;;;;;;;4992252;28;20061;-71
2023/03/03 15:00:05;;;;;;;40.15;3.63;;;;;;;;;;4991972;28;20132;-71